createdAt,value
2018-05-12T00:00:02.075Z,119
2018-05-12T00:05:02.081Z,119
2018-05-12T00:10:02.089Z,119
2018-05-12T00:15:02.229Z,119
2018-05-12T00:20:02.080Z,119
2018-05-12T00:25:02.110Z,119
2018-05-12T00:30:02.091Z,119
2018-05-12T00:35:02.086Z,119
2018-05-12T00:40:02.106Z,119
2018-05-12T00:45:02.101Z,119
2018-05-12T00:50:02.104Z,119
2018-05-12T00:55:02.122Z,119
2018-05-12T01:00:02.110Z,119
2018-05-12T01:05:02.113Z,119
2018-05-12T01:10:02.176Z,119
2018-05-12T01:15:02.158Z,119
2018-05-12T01:20:02.112Z,119
2018-05-12T01:25:02.128Z,119
2018-05-12T01:30:02.122Z,119
2018-05-12T01:35:02.130Z,119
2018-05-12T01:40:02.155Z,119
2018-05-12T01:45:02.141Z,119
2018-05-12T01:50:02.136Z,119
2018-05-12T01:55:02.127Z,119
2018-05-12T02:00:02.142Z,119
2018-05-12T02:05:02.142Z,119
2018-05-12T02:10:02.139Z,119
2018-05-12T02:15:02.144Z,119
2018-05-12T02:20:02.148Z,119
2018-05-12T02:25:02.148Z,119
2018-05-12T02:30:02.166Z,119
2018-05-12T02:35:02.177Z,119
2018-05-12T02:40:02.201Z,119
2018-05-12T02:45:02.167Z,119
2018-05-12T02:50:02.175Z,119
2018-05-12T02:55:02.169Z,119
2018-05-12T03:00:02.205Z,119
2018-05-12T03:05:02.177Z,119
2018-05-12T03:10:02.191Z,119
2018-05-12T03:15:02.184Z,119
2018-05-12T03:20:02.177Z,119
2018-05-12T03:25:02.192Z,119
2018-05-12T03:30:02.181Z,119
2018-05-12T03:35:02.180Z,119
2018-05-12T03:40:02.191Z,119
2018-05-12T03:45:02.191Z,119
2018-05-12T03:50:02.193Z,119
2018-05-12T03:55:02.196Z,119
2018-05-12T04:00:02.271Z,119
2018-05-12T04:05:02.198Z,119
2018-05-12T04:10:02.201Z,119
2018-05-12T04:15:02.207Z,119
2018-05-12T04:20:02.214Z,119
2018-05-12T04:25:02.235Z,119
2018-05-12T04:30:02.216Z,119
2018-05-12T04:35:02.233Z,119
2018-05-12T04:40:02.224Z,119
2018-05-12T04:45:02.235Z,119
2018-05-12T04:50:02.231Z,119
2018-05-12T04:55:02.225Z,119
2018-05-12T05:00:02.238Z,119
2018-05-12T05:05:02.235Z,119
2018-05-12T05:10:02.241Z,119
2018-05-12T05:15:02.249Z,119
2018-05-12T05:20:02.249Z,119
2018-05-12T05:25:02.254Z,119
2018-05-12T05:30:02.250Z,119
2018-05-12T05:35:02.252Z,119
2018-05-12T05:40:02.256Z,119
2018-05-12T05:45:02.257Z,119
2018-05-12T05:50:02.265Z,119
2018-05-12T05:55:02.258Z,119
2018-05-12T06:00:02.289Z,119
2018-05-12T06:05:02.277Z,119
2018-05-12T06:10:02.291Z,119
2018-05-12T06:15:02.277Z,119
2018-05-12T06:20:02.294Z,119
2018-05-12T06:25:02.283Z,119
2018-05-12T06:30:02.297Z,119
2018-05-12T06:35:02.287Z,119
2018-05-12T06:40:02.301Z,119
2018-05-12T06:45:02.304Z,119
2018-05-12T06:50:02.287Z,119
2018-05-12T06:51:50.589Z,119
2018-05-12T06:55:02.284Z,119
2018-05-12T06:55:09.375Z,119
2018-05-12T06:58:35.725Z,119
2018-05-12T07:00:02.296Z,119
2018-05-12T07:05:02.293Z,119
2018-05-12T07:10:02.312Z,119
2018-05-12T07:15:02.310Z,119
2018-05-12T07:20:02.300Z,119
2018-05-12T07:25:02.320Z,119
2018-05-12T07:30:02.317Z,119
2018-05-12T07:35:02.316Z,119
2018-05-12T07:40:02.313Z,119
2018-05-12T07:45:02.429Z,119
2018-05-12T07:50:02.322Z,119
2018-05-12T07:55:02.321Z,119
2018-05-12T08:00:02.401Z,119
2018-05-12T08:05:02.326Z,119
2018-05-12T08:10:02.327Z,119
2018-05-12T08:15:02.329Z,119
2018-05-12T08:20:02.332Z,119
2018-05-12T08:25:02.329Z,119
2018-05-12T08:30:02.339Z,119
2018-05-12T08:35:02.332Z,119
2018-05-12T08:40:02.385Z,119
2018-05-12T08:45:02.339Z,119
2018-05-12T08:50:02.353Z,119
2018-05-12T08:55:02.434Z,119
2018-05-12T09:00:02.362Z,119
2018-05-12T09:05:02.351Z,119
2018-05-12T09:10:02.394Z,115.89
2018-05-12T09:15:02.362Z,112.22
2018-05-12T09:20:02.366Z,107.98
2018-05-12T09:25:02.365Z,103.87
2018-05-12T09:30:02.372Z,102.1
2018-05-12T09:35:02.367Z,100.56
2018-05-12T09:40:02.368Z,100.86
2018-05-12T09:45:02.387Z,99.11
2018-05-12T09:50:02.384Z,93.83
2018-05-12T09:55:01.387Z,96.34
2018-05-12T10:00:01.377Z,97.23
2018-05-12T10:05:01.385Z,99.06
2018-05-12T10:10:01.387Z,101.36
2018-05-12T10:15:01.397Z,96.73
2018-05-12T10:20:01.405Z,97.18
2018-05-12T10:25:01.400Z,100.82
2018-05-12T10:30:01.395Z,100.85
2018-05-12T10:35:01.399Z,100.98
2018-05-12T10:40:01.422Z,99.82
2018-05-12T10:45:01.420Z,101.32
2018-05-12T10:50:01.433Z,103.42
2018-05-12T10:55:01.418Z,102.23
2018-05-12T11:00:01.425Z,104.01
2018-05-12T11:05:01.441Z,105.23
2018-05-12T11:10:01.438Z,104.32
2018-05-12T11:15:01.434Z,104.41
2018-05-12T11:20:01.435Z,109.04
2018-05-12T11:25:01.438Z,107.08
2018-05-12T11:30:01.439Z,108.57
2018-05-12T11:35:01.454Z,108.58
2018-05-12T11:40:01.450Z,103.97
2018-05-12T11:45:01.452Z,102.43
2018-05-12T11:50:01.460Z,102.26
2018-05-12T11:55:01.449Z,101.78
2018-05-12T12:00:01.460Z,100.87
2018-05-12T12:05:01.456Z,102.8
2018-05-12T12:10:01.457Z,102.42
2018-05-12T12:15:01.466Z,100.93
2018-05-12T12:20:01.463Z,99.01
2018-05-12T12:25:01.464Z,100.72
2018-05-12T12:30:01.469Z,102.19
2018-05-12T12:35:01.478Z,101.15
2018-05-12T12:40:01.474Z,97.1
2018-05-12T12:45:01.649Z,99.17
2018-05-12T12:50:01.478Z,98.24
2018-05-12T12:55:01.481Z,98.04
2018-05-12T13:00:01.500Z,98.59
2018-05-12T13:05:01.492Z,99.81
2018-05-12T13:10:01.495Z,100.49
2018-05-12T13:15:01.507Z,102.1
2018-05-12T13:20:01.495Z,101.98
2018-05-12T13:25:01.498Z,100.2
2018-05-12T13:30:01.508Z,101.8
2018-05-12T13:36:40.925Z,100.03
2018-05-12T13:39:07.447Z,100.93
2018-05-12T13:39:12.453Z,100.54
2018-05-12T13:40:02.241Z,101.24
2018-05-12T13:45:02.264Z,101.66
2018-05-12T13:46:41.083Z,103.28
2018-05-12T13:50:02.243Z,103.12
2018-05-12T13:55:03.095Z,103.2
2018-05-12T14:00:02.347Z,104.65
2018-05-12T14:05:02.335Z,103.66
2018-05-12T14:10:02.341Z,104.09
2018-05-12T14:15:02.361Z,104.74
2018-05-12T14:20:02.346Z,105.46
2018-05-12T14:25:02.350Z,103.97
2018-05-12T14:30:02.375Z,104.56
2018-05-12T14:35:02.348Z,104.94
2018-05-12T14:40:02.349Z,104.82
2018-05-12T14:45:02.362Z,105.64
2018-05-12T14:50:02.357Z,105.91
2018-05-12T14:55:02.360Z,104.76
2018-05-12T15:00:02.358Z,104.54
2018-05-12T15:05:02.369Z,105.08
2018-05-12T15:10:02.371Z,105.61
2018-05-12T15:15:02.369Z,105.85
2018-05-12T15:20:02.372Z,104.71
2018-05-12T15:25:02.379Z,104.63
2018-05-12T15:30:02.374Z,104.88
2018-05-12T15:35:02.384Z,104.43
2018-05-12T15:40:02.378Z,104.16
2018-05-12T15:45:02.396Z,104.07
2018-05-12T15:50:02.557Z,104.84
2018-05-12T15:55:01.387Z,105.99
2018-05-12T16:00:01.393Z,105.6
2018-05-12T16:05:01.393Z,104.13
2018-05-12T16:10:01.397Z,104.73
2018-05-12T16:15:01.439Z,104.8
2018-05-12T16:20:01.413Z,103.09
2018-05-12T16:25:01.413Z,102.75
2018-05-12T16:30:01.408Z,103.05
2018-05-12T16:35:01.423Z,102.98
2018-05-12T16:40:01.414Z,103.35
2018-05-12T16:43:47.108Z,103.41
2018-05-12T16:45:00.385Z,104.39
2018-05-12T16:50:00.395Z,104.5
2018-05-12T16:55:00.413Z,105.61
2018-05-12T17:00:00.390Z,105.32
2018-05-12T17:05:00.403Z,106.61
2018-05-12T17:10:00.399Z,107.37
2018-05-12T17:15:00.405Z,108.58
2018-05-12T17:18:13.821Z,108.5
2018-05-12T17:20:00.461Z,108.85
2018-05-12T17:23:01.649Z,108.89
2018-05-12T17:24:10.312Z,109.31
2018-05-12T17:24:55.350Z,108.99
2018-05-12T17:25:03.449Z,108.84
2018-05-12T17:30:03.462Z,109.94
2018-05-12T17:35:03.468Z,110.08
2018-05-12T17:40:03.476Z,109.83
2018-05-12T17:45:03.470Z,110.67
2018-05-12T17:50:03.635Z,111.82
2018-05-12T17:55:03.478Z,111.22
2018-05-12T18:00:03.489Z,111.86
2018-05-12T18:05:03.484Z,112.23
2018-05-12T18:10:03.493Z,112.27
2018-05-12T18:15:03.489Z,112.94
2018-05-12T18:20:03.493Z,113.57
2018-05-12T18:25:03.659Z,114.94
2018-05-12T18:30:03.502Z,114.16
2018-05-12T18:35:03.513Z,115.22
2018-05-12T18:40:03.506Z,115.33
2018-05-12T18:45:03.498Z,116.12
2018-05-12T18:50:03.505Z,115.86
2018-05-12T18:55:03.508Z,116.18
2018-05-12T19:00:03.527Z,117.69
2018-05-12T19:05:03.513Z,118.03
2018-05-12T19:10:03.515Z,118.65
2018-05-12T19:15:03.509Z,118.62
2018-05-12T19:20:03.522Z,119
2018-05-12T19:25:03.524Z,119
2018-05-12T19:30:03.528Z,119
2018-05-12T19:35:03.528Z,119
2018-05-12T19:40:03.525Z,119
2018-05-12T19:45:03.524Z,119
2018-05-12T19:50:03.526Z,119
2018-05-12T19:55:03.535Z,119
2018-05-12T20:00:03.533Z,119
2018-05-12T20:05:03.539Z,119
2018-05-12T20:10:03.545Z,119
2018-05-12T20:15:03.558Z,119
2018-05-12T20:20:03.565Z,119
2018-05-12T20:25:03.564Z,119
2018-05-12T20:30:03.562Z,119
2018-05-12T20:35:03.562Z,119
2018-05-12T20:40:03.555Z,119
2018-05-12T20:45:03.658Z,119
2018-05-12T20:50:03.578Z,119
2018-05-12T20:55:03.567Z,119
2018-05-12T21:00:03.577Z,119
2018-05-12T21:05:03.580Z,119
2018-05-12T21:10:03.578Z,119
2018-05-12T21:15:03.587Z,119
2018-05-12T21:20:03.606Z,119
2018-05-12T21:25:03.593Z,119
2018-05-12T21:30:03.601Z,119
2018-05-12T21:35:03.605Z,119
2018-05-12T21:40:03.602Z,119
2018-05-12T21:45:03.608Z,119
2018-05-12T21:50:03.600Z,119
2018-05-12T21:55:03.606Z,119
2018-05-12T22:00:03.605Z,119
2018-05-12T22:05:03.608Z,119
2018-05-12T22:10:03.618Z,119
2018-05-12T22:15:03.613Z,119
2018-05-12T22:20:03.627Z,119
2018-05-12T22:25:03.620Z,119
2018-05-12T22:30:03.651Z,119
2018-05-12T22:35:03.636Z,119
2018-05-12T22:40:03.645Z,119
2018-05-12T22:45:03.639Z,119
2018-05-12T22:50:03.630Z,119
2018-05-12T22:55:03.662Z,119
2018-05-12T23:00:03.666Z,119
2018-05-12T23:05:03.645Z,119
2018-05-12T23:10:03.750Z,119
2018-05-12T23:15:03.657Z,119
2018-05-12T23:20:03.649Z,119
2018-05-12T23:25:03.990Z,119
2018-05-12T23:30:03.682Z,119
2018-05-12T23:35:03.666Z,119
2018-05-12T23:40:03.676Z,119
2018-05-12T23:45:03.674Z,119
2018-05-12T23:50:03.679Z,119
2018-05-12T23:55:03.692Z,119
